createdAt,value
2023-03-28T00:01:03.027Z,0.40
2023-03-28T00:03:35.855Z,0.40
2023-03-28T00:06:05.884Z,0.30
2023-03-28T00:08:33.338Z,0.30
2023-03-28T00:11:20.983Z,0.20
2023-03-28T00:14:01.071Z,0.20
2023-03-28T00:16:38.229Z,0.20
2023-03-28T00:19:11.886Z,0.20
2023-03-28T00:21:41.672Z,0.10
2023-03-28T00:24:14.092Z,0.10
2023-03-28T00:26:42.920Z,0.20
2023-03-28T00:29:15.982Z,0.10
2023-03-28T00:31:43.316Z,0.10
2023-03-28T00:34:10.509Z,0.00
2023-03-28T00:36:39.303Z,0.00
2023-03-28T00:39:07.008Z,-0.10
2023-03-28T00:41:39.873Z,-0.10
2023-03-28T00:44:42.669Z,-0.10
2023-03-28T00:47:39.188Z,-0.10
2023-03-28T00:50:28.472Z,-0.10
2023-03-28T00:53:09.278Z,-0.10
2023-03-28T00:55:50.742Z,-0.10
2023-03-28T00:58:24.485Z,-0.10
2023-03-28T01:00:52.207Z,-0.10
2023-03-28T01:03:21.804Z,-0.10
2023-03-28T01:05:49.163Z,-0.10
2023-03-28T01:08:23.357Z,-0.10
2023-03-28T01:10:50.975Z,-0.10
2023-03-28T01:13:27.048Z,-0.10
2023-03-28T01:15:54.189Z,-0.10
2023-03-28T01:18:24.085Z,-0.10
2023-03-28T01:21:08.991Z,-0.10
2023-03-28T01:24:11.401Z,-0.10
2023-03-28T01:26:51.859Z,-0.10
2023-03-28T01:29:42.890Z,-0.10
2023-03-28T01:32:43.620Z,-0.10
2023-03-28T01:35:41.752Z,-0.10
2023-03-28T01:38:40.928Z,-0.10
2023-03-28T01:41:07.861Z,-0.10
2023-03-28T01:43:53.673Z,-0.10
2023-03-28T01:46:36.928Z,-0.10
2023-03-28T01:49:31.334Z,-0.10
2023-03-28T01:52:05.178Z,-0.10
2023-03-28T01:54:42.060Z,-0.20
2023-03-28T01:57:19.806Z,-0.10
2023-03-28T02:00:25.758Z,-0.20
2023-03-28T02:03:11.351Z,-0.20
2023-03-28T02:05:39.743Z,-0.20
2023-03-28T02:08:09.638Z,-0.20
2023-03-28T02:10:41.028Z,-0.20
2023-03-28T02:13:19.425Z,-0.30
2023-03-28T02:15:52.197Z,-0.30
2023-03-28T02:18:25.334Z,-0.30
2023-03-28T02:20:58.900Z,-0.30
2023-03-28T02:23:36.478Z,-0.30
2023-03-28T02:26:04.118Z,-0.30
2023-03-28T02:28:33.229Z,-0.40
2023-03-28T02:31:01.894Z,-0.40
2023-03-28T02:33:38.003Z,-0.40
2023-03-28T02:36:14.076Z,-0.40
2023-03-28T02:38:44.118Z,-0.40
2023-03-28T02:41:43.421Z,-0.50
2023-03-28T02:44:10.395Z,-0.50
2023-03-28T02:47:15.957Z,-0.60
2023-03-28T02:50:11.086Z,-0.60
2023-03-28T02:52:56.278Z,-0.70
2023-03-28T02:55:33.706Z,-0.70
2023-03-28T02:58:13.611Z,-0.80
2023-03-28T03:00:40.904Z,-0.80
2023-03-28T03:03:10.711Z,-0.90
2023-03-28T03:05:38.255Z,-0.90
2023-03-28T03:08:05.539Z,-0.90
2023-03-28T03:10:32.569Z,-0.90
2023-03-28T03:12:59.708Z,-0.90
2023-03-28T03:15:31.190Z,-0.90
2023-03-28T03:17:59.473Z,-0.90
2023-03-28T03:20:27.878Z,-0.90
2023-03-28T03:22:55.685Z,-1.00
2023-03-28T03:25:22.889Z,-1.00
2023-03-28T03:27:49.909Z,-1.00
2023-03-28T03:30:17.526Z,-1.00
2023-03-28T03:32:45.439Z,-1.00
2023-03-28T03:35:12.682Z,-1.00
2023-03-28T03:37:39.755Z,-1.00
2023-03-28T03:40:08.371Z,-1.00
2023-03-28T03:42:36.004Z,-1.00
2023-03-28T03:45:03.481Z,-1.00
2023-03-28T03:47:30.916Z,-0.90
2023-03-28T03:49:58.026Z,-0.90
2023-03-28T03:52:25.261Z,-0.90
2023-03-28T03:54:52.298Z,-0.90
2023-03-28T03:57:19.448Z,-0.90
2023-03-28T03:59:46.636Z,-0.90
2023-03-28T04:02:13.694Z,-0.90
2023-03-28T04:04:40.798Z,-0.90
2023-03-28T04:07:07.827Z,-0.90
2023-03-28T04:09:34.855Z,-0.90
2023-03-28T04:12:01.868Z,-1.00
2023-03-28T04:14:28.969Z,-1.00
2023-03-28T04:16:56.329Z,-1.00
2023-03-28T04:19:24.543Z,-1.00
2023-03-28T04:21:52.859Z,-1.00
2023-03-28T04:24:24.433Z,-1.00
2023-03-28T04:26:55.952Z,-1.00
2023-03-28T04:29:30.899Z,-1.00
2023-03-28T04:31:58.938Z,-1.10
2023-03-28T04:34:30.524Z,-1.10
2023-03-28T04:37:02.355Z,-1.10
2023-03-28T04:39:35.859Z,-1.10
2023-03-28T04:42:05.678Z,-1.10
2023-03-28T04:44:32.949Z,-1.10
2023-03-28T04:47:00.290Z,-1.10
2023-03-28T04:49:27.674Z,-1.10
2023-03-28T04:51:54.781Z,-1.20
2023-03-28T04:54:21.922Z,-1.20
2023-03-28T04:56:49.736Z,-1.10
2023-03-28T04:59:17.737Z,-1.20
2023-03-28T05:01:50.733Z,-1.20
2023-03-28T05:04:19.333Z,-1.30
2023-03-28T05:06:47.259Z,-1.40
2023-03-28T05:09:14.718Z,-1.50
2023-03-28T05:11:42.652Z,-1.60
2023-03-28T05:14:09.780Z,-1.70
2023-03-28T05:16:36.956Z,-1.70
2023-03-28T05:19:07.495Z,-1.90
2023-03-28T05:21:34.562Z,-1.90
2023-03-28T05:24:01.850Z,-2.00
2023-03-28T05:26:29.308Z,-1.90
2023-03-28T05:28:57.136Z,-1.90
2023-03-28T05:31:26.159Z,-1.90
2023-03-28T05:33:53.393Z,-1.70
2023-03-28T05:36:20.770Z,-1.60
2023-03-28T05:38:48.340Z,-1.50
2023-03-28T05:41:16.166Z,-1.40
2023-03-28T05:43:43.255Z,-1.30
2023-03-28T05:46:10.574Z,-1.20
2023-03-28T05:48:38.176Z,-1.00
2023-03-28T05:51:05.448Z,-0.60
2023-03-28T05:53:32.501Z,-0.20
2023-03-28T05:55:59.516Z,0.20
2023-03-28T05:58:26.570Z,0.40
2023-03-28T06:00:53.621Z,0.60
2023-03-28T06:03:20.769Z,0.80
2023-03-28T06:05:48.245Z,1.20
2023-03-28T06:08:15.725Z,1.50
2023-03-28T06:10:42.727Z,2.10
2023-03-28T06:13:09.803Z,2.50
2023-03-28T06:15:37.012Z,2.90
2023-03-28T06:18:04.225Z,3.20
2023-03-28T06:20:31.475Z,3.50
2023-03-28T06:22:58.541Z,3.60
2023-03-28T06:25:25.615Z,3.90
2023-03-28T06:27:52.710Z,4.30
2023-03-28T06:30:19.856Z,4.80
2023-03-28T06:32:47.464Z,5.10
2023-03-28T06:35:14.715Z,5.50
2023-03-28T06:37:41.780Z,6.10
2023-03-28T06:40:09.993Z,6.30
2023-03-28T06:42:37.378Z,6.80
2023-03-28T06:45:04.990Z,7.00
2023-03-28T06:47:32.169Z,7.20
2023-03-28T06:49:59.239Z,7.80
2023-03-28T06:52:26.256Z,8.10
2023-03-28T06:54:53.302Z,8.40
2023-03-28T06:57:22.341Z,8.50
2023-03-28T06:59:49.456Z,8.70
2023-03-28T07:02:17.420Z,8.60
2023-03-28T07:04:44.546Z,8.70
2023-03-28T07:07:11.559Z,8.20
2023-03-28T07:09:38.838Z,7.20
2023-03-28T07:12:06.175Z,6.90
2023-03-28T07:14:33.368Z,6.40
2023-03-28T07:17:00.613Z,5.70
2023-03-28T07:19:27.793Z,5.00
2023-03-28T07:21:54.864Z,4.60
2023-03-28T07:24:21.916Z,4.40
2023-03-28T07:26:49.019Z,4.30
2023-03-28T07:29:16.371Z,4.20
2023-03-28T07:31:43.664Z,4.20
2023-03-28T07:34:10.894Z,4.20
2023-03-28T07:36:40.820Z,4.30
2023-03-28T07:39:08.347Z,4.10
2023-03-28T07:41:35.409Z,4.10
2023-03-28T07:44:02.481Z,4.10
2023-03-28T07:46:32.367Z,4.10
2023-03-28T07:49:00.996Z,3.90
2023-03-28T07:51:28.124Z,3.80
2023-03-28T07:53:55.217Z,3.60
2023-03-28T07:56:22.279Z,3.70
2023-03-28T07:58:49.366Z,3.80
2023-03-28T08:01:18.922Z,3.80
2023-03-28T08:03:46.321Z,3.70
2023-03-28T08:06:28.685Z,3.70
2023-03-28T08:08:58.634Z,3.70
2023-03-28T08:11:27.166Z,3.70
2023-03-28T08:13:54.307Z,3.70
2023-03-28T08:16:21.559Z,3.80
2023-03-28T08:18:57.037Z,4.00
2023-03-28T08:21:31.143Z,3.90
2023-03-28T08:24:06.300Z,3.80
2023-03-28T08:26:33.352Z,3.80
2023-03-28T08:29:00.478Z,3.70
2023-03-28T08:31:28.991Z,4.00
2023-03-28T08:33:57.379Z,3.90
2023-03-28T08:36:26.120Z,4.20
2023-03-28T08:38:55.239Z,4.20
2023-03-28T08:41:38.917Z,4.40
2023-03-28T08:44:26.453Z,4.50
2023-03-28T08:46:59.713Z,4.30
2023-03-28T08:49:26.988Z,4.50
2023-03-28T08:52:00.879Z,4.30
2023-03-28T08:54:46.475Z,4.40
2023-03-28T08:57:21.955Z,4.30
2023-03-28T09:00:17.170Z,4.30
2023-03-28T09:02:44.486Z,4.30
2023-03-28T09:05:27.534Z,4.30
2023-03-28T09:08:22.064Z,4.70
2023-03-28T09:11:03.617Z,5.00
2023-03-28T09:13:57.481Z,5.10
2023-03-28T09:16:39.325Z,5.10
2023-03-28T09:19:44.526Z,5.10
2023-03-28T09:22:32.836Z,5.10
2023-03-28T09:25:34.928Z,5.30
2023-03-28T09:28:01.969Z,5.60
2023-03-28T09:30:54.156Z,5.60
2023-03-28T09:33:50.474Z,5.40
2023-03-28T09:36:25.952Z,5.50
2023-03-28T09:39:19.134Z,5.50
2023-03-28T09:41:52.601Z,5.40
2023-03-28T09:44:26.524Z,5.80
2023-03-28T09:46:57.807Z,6.00
2023-03-28T09:49:26.581Z,6.00
2023-03-28T09:51:56.386Z,6.10
2023-03-28T09:54:33.112Z,6.00
2023-03-28T09:57:05.154Z,5.90
2023-03-28T09:59:34.493Z,5.70
2023-03-28T10:02:04.265Z,5.50
2023-03-28T10:04:36.492Z,5.40
2023-03-28T10:07:09.677Z,5.60
2023-03-28T10:09:52.171Z,5.80
2023-03-28T10:12:33.209Z,6.00
2023-03-28T10:15:00.400Z,6.00
2023-03-28T10:17:36.999Z,6.10
2023-03-28T10:20:15.954Z,6.20
2023-03-28T10:22:47.195Z,6.20
2023-03-28T10:25:37.900Z,6.30
2023-03-28T10:28:07.841Z,6.20
2023-03-28T10:30:36.528Z,6.30
2023-03-28T10:33:15.442Z,6.50
2023-03-28T10:36:09.904Z,6.50
2023-03-28T10:38:45.987Z,6.50
2023-03-28T10:41:26.169Z,6.60
2023-03-28T10:43:53.965Z,6.60
2023-03-28T10:46:27.364Z,6.60
2023-03-28T10:48:59.232Z,6.50
2023-03-28T10:51:27.187Z,6.60
2023-03-28T10:54:21.802Z,6.70
2023-03-28T10:57:22.450Z,6.70
2023-03-28T10:59:57.591Z,6.70
2023-03-28T11:02:24.652Z,6.70
2023-03-28T11:05:04.145Z,6.70
2023-03-28T11:07:49.764Z,6.90
2023-03-28T11:10:49.639Z,6.90
2023-03-28T11:13:23.740Z,7.10
2023-03-28T11:16:13.249Z,7.20
2023-03-28T11:18:49.168Z,7.20
2023-03-28T11:21:27.237Z,7.30
2023-03-28T11:24:27.746Z,7.30
2023-03-28T11:27:26.193Z,7.60
2023-03-28T11:30:22.264Z,7.90
2023-03-28T11:33:21.641Z,7.90
2023-03-28T11:35:55.254Z,7.80
2023-03-28T11:38:27.697Z,7.80
2023-03-28T11:41:14.320Z,7.80
2023-03-28T11:44:04.550Z,7.90
2023-03-28T11:46:42.894Z,8.20
2023-03-28T11:49:24.522Z,8.50
2023-03-28T11:52:26.740Z,8.80
2023-03-28T11:55:07.839Z,8.70
2023-03-28T11:57:46.764Z,8.80
2023-03-28T12:00:33.262Z,8.80
2023-03-28T12:03:09.446Z,9.00
2023-03-28T12:06:04.494Z,9.30
2023-03-28T12:08:35.435Z,9.20
2023-03-28T12:11:07.631Z,8.80
2023-03-28T12:13:53.094Z,8.90
2023-03-28T12:16:35.058Z,8.80
2023-03-28T12:19:06.770Z,8.50
2023-03-28T12:21:45.860Z,8.50
2023-03-28T12:24:25.086Z,8.60
2023-03-28T12:26:58.186Z,8.90
2023-03-28T12:29:44.969Z,9.40
2023-03-28T12:32:53.068Z,9.90
2023-03-28T12:35:45.917Z,9.70
2023-03-28T12:38:47.752Z,10.40
2023-03-28T12:41:23.066Z,10.70
2023-03-28T12:43:58.468Z,11.00
2023-03-28T12:46:36.646Z,11.30
2023-03-28T12:49:14.246Z,11.20
2023-03-28T12:51:46.163Z,11.20
2023-03-28T12:54:16.221Z,11.20
2023-03-28T12:56:48.134Z,11.10
2023-03-28T12:59:39.512Z,11.00
2023-03-28T13:02:34.758Z,11.10
2023-03-28T13:05:26.993Z,11.30
2023-03-28T13:08:00.906Z,11.40
2023-03-28T13:10:34.048Z,11.20
2023-03-28T13:13:12.043Z,10.80
2023-03-28T13:16:01.409Z,10.30
2023-03-28T13:18:31.889Z,10.10
2023-03-28T13:21:01.609Z,10.20
2023-03-28T13:23:35.911Z,10.50
2023-03-28T13:26:04.127Z,10.60
2023-03-28T13:28:34.086Z,11.10
2023-03-28T13:31:11.491Z,11.30
2023-03-28T13:33:48.504Z,11.00
2023-03-28T13:36:21.961Z,10.70
2023-03-28T13:38:51.019Z,10.30
2023-03-28T13:41:35.807Z,10.10
2023-03-28T13:44:11.282Z,10.00
2023-03-28T13:47:04.737Z,9.90
2023-03-28T13:49:43.778Z,10.00
2023-03-28T13:52:21.303Z,9.90
2023-03-28T13:54:54.501Z,9.90
2023-03-28T13:57:26.141Z,9.70
2023-03-28T13:59:58.788Z,9.70
2023-03-28T14:02:47.586Z,9.60
2023-03-28T14:05:24.068Z,9.50
2023-03-28T14:07:52.995Z,9.70
2023-03-28T14:10:33.757Z,9.60
2023-03-28T14:13:08.449Z,9.90
2023-03-28T14:15:39.979Z,10.60
2023-03-28T14:18:16.714Z,10.90
2023-03-28T14:20:46.969Z,11.00
2023-03-28T14:23:29.025Z,11.70
2023-03-28T14:25:59.415Z,12.20
2023-03-28T14:28:29.985Z,12.30
2023-03-28T14:30:58.309Z,11.90
2023-03-28T14:33:26.250Z,11.20
2023-03-28T14:36:03.026Z,10.90
2023-03-28T14:38:33.395Z,10.70
2023-03-28T14:41:32.616Z,11.10
2023-03-28T14:44:00.236Z,12.00
2023-03-28T14:46:30.167Z,12.30
2023-03-28T14:49:01.314Z,12.30
2023-03-28T14:51:28.482Z,11.70
2023-03-28T14:53:56.974Z,11.40
2023-03-28T14:56:26.666Z,11.30
2023-03-28T14:58:59.370Z,11.40
2023-03-28T15:01:26.922Z,11.20
2023-03-28T15:04:08.467Z,11.20
2023-03-28T15:06:36.611Z,11.10
2023-03-28T15:09:12.450Z,11.10
2023-03-28T15:11:43.789Z,11.30
2023-03-28T15:14:23.175Z,11.70
2023-03-28T15:16:50.925Z,11.90
2023-03-28T15:19:22.564Z,11.80
2023-03-28T15:22:23.466Z,12.00
2023-03-28T15:24:51.226Z,11.90
2023-03-28T15:27:25.584Z,11.70
2023-03-28T15:29:53.014Z,11.20
2023-03-28T15:32:20.826Z,10.80
2023-03-28T15:35:22.695Z,10.20
2023-03-28T15:37:50.475Z,9.90
2023-03-28T15:40:36.261Z,9.80
2023-03-28T15:43:03.626Z,9.70
2023-03-28T15:45:41.712Z,9.70
2023-03-28T15:48:19.970Z,9.60
2023-03-28T15:50:54.378Z,9.60
2023-03-28T15:53:25.659Z,9.60
2023-03-28T15:55:52.837Z,9.70
2023-03-28T15:58:21.984Z,9.70
2023-03-28T16:00:50.506Z,9.60
2023-03-28T16:03:34.228Z,9.40
2023-03-28T16:06:32.172Z,9.30
2023-03-28T16:09:21.236Z,9.20
2023-03-28T16:11:55.967Z,9.00
2023-03-28T16:14:23.042Z,9.00
2023-03-28T16:16:54.523Z,8.80
2023-03-28T16:19:33.888Z,8.60
2023-03-28T16:22:01.387Z,8.50
2023-03-28T16:24:28.628Z,8.50
2023-03-28T16:26:56.365Z,8.40
2023-03-28T16:29:23.646Z,8.40
2023-03-28T16:31:52.428Z,8.40
2023-03-28T16:34:19.543Z,8.30
2023-03-28T16:36:47.086Z,8.30
2023-03-28T16:39:14.200Z,8.40
2023-03-28T16:41:41.415Z,8.40
2023-03-28T16:44:08.482Z,8.50
2023-03-28T16:46:35.752Z,8.40
2023-03-28T16:49:02.847Z,8.40
2023-03-28T16:51:29.972Z,8.30
2023-03-28T16:53:56.971Z,8.30
2023-03-28T16:56:27.014Z,8.20
2023-03-28T16:58:54.830Z,8.10
2023-03-28T17:01:22.385Z,8.00
2023-03-28T17:03:50.304Z,8.00
2023-03-28T17:06:17.561Z,8.00
2023-03-28T17:08:44.877Z,7.90
2023-03-28T17:11:12.874Z,7.90
2023-03-28T17:13:41.307Z,7.90
2023-03-28T17:16:10.191Z,7.80
2023-03-28T17:18:37.806Z,7.80
2023-03-28T17:21:10.335Z,7.70
2023-03-28T17:23:39.652Z,7.70
2023-03-28T17:26:10.296Z,7.70
2023-03-28T17:28:39.975Z,7.60
2023-03-28T17:31:08.743Z,7.60
2023-03-28T17:33:36.379Z,7.60
2023-03-28T17:36:28.503Z,7.50
2023-03-28T17:38:58.747Z,7.50
2023-03-28T17:41:28.018Z,7.50
2023-03-28T17:43:57.333Z,7.40
2023-03-28T17:46:25.220Z,7.30
2023-03-28T17:48:53.358Z,7.30
2023-03-28T17:51:21.844Z,7.30
2023-03-28T17:53:52.106Z,7.30
2023-03-28T17:56:20.007Z,7.30
2023-03-28T17:58:48.492Z,7.20
2023-03-28T18:01:25.443Z,7.20
2023-03-28T18:03:55.473Z,7.20
2023-03-28T18:06:26.349Z,7.20
2023-03-28T18:08:59.043Z,7.20
2023-03-28T18:11:29.471Z,7.10
2023-03-28T18:13:59.000Z,7.10
2023-03-28T18:16:27.111Z,7.10
2023-03-28T18:18:54.565Z,7.10
2023-03-28T18:21:25.342Z,7.10
2023-03-28T18:23:52.858Z,7.10
2023-03-28T18:26:24.999Z,7.10
2023-03-28T18:28:54.692Z,7.10
2023-03-28T18:31:28.528Z,7.10
2023-03-28T18:34:02.408Z,7.00
2023-03-28T18:36:40.238Z,7.00
2023-03-28T18:39:19.577Z,7.00
2023-03-28T18:41:59.421Z,7.00
2023-03-28T18:44:34.900Z,7.00
2023-03-28T18:47:08.343Z,7.00
2023-03-28T18:49:35.640Z,6.90
2023-03-28T18:52:09.087Z,7.00
2023-03-28T18:54:37.015Z,6.90
2023-03-28T18:57:05.005Z,7.00
2023-03-28T18:59:32.676Z,7.00
2023-03-28T19:02:01.325Z,7.00
2023-03-28T19:04:29.355Z,7.00
2023-03-28T19:06:56.785Z,7.00
2023-03-28T19:09:24.688Z,7.00
2023-03-28T19:11:53.528Z,6.90
2023-03-28T19:14:20.849Z,6.80
2023-03-28T19:16:48.161Z,6.70
2023-03-28T19:19:15.675Z,6.70
2023-03-28T19:21:42.723Z,6.70
2023-03-28T19:24:13.643Z,6.60
2023-03-28T19:26:41.519Z,6.50
2023-03-28T19:29:08.713Z,6.30
2023-03-28T19:31:36.339Z,6.10
2023-03-28T19:34:03.846Z,6.00
2023-03-28T19:36:31.530Z,5.80
2023-03-28T19:39:05.138Z,5.70
2023-03-28T19:41:32.625Z,5.50
2023-03-28T19:44:05.994Z,5.30
2023-03-28T19:46:36.330Z,5.20
2023-03-28T19:49:10.479Z,5.10
2023-03-28T19:51:40.085Z,5.00
2023-03-28T19:54:07.471Z,4.90
2023-03-28T19:56:37.588Z,4.80
2023-03-28T19:59:04.782Z,4.70
2023-03-28T20:01:32.248Z,4.60
2023-03-28T20:03:59.354Z,4.50
2023-03-28T20:06:26.488Z,4.50
2023-03-28T20:08:53.688Z,4.40
2023-03-28T20:11:22.189Z,4.40
2023-03-28T20:13:49.381Z,4.40
2023-03-28T20:16:16.708Z,4.30
2023-03-28T20:18:44.864Z,4.30
2023-03-28T20:21:13.670Z,4.30
2023-03-28T20:23:41.160Z,4.30
2023-03-28T20:26:18.845Z,4.30
2023-03-28T20:28:50.518Z,4.20
2023-03-28T20:31:18.369Z,4.20
2023-03-28T20:33:46.366Z,4.20
2023-03-28T20:36:13.476Z,4.20
2023-03-28T20:38:40.699Z,4.20
2023-03-28T20:41:12.481Z,4.10
2023-03-28T20:43:41.265Z,4.10
2023-03-28T20:46:09.873Z,4.10
2023-03-28T20:48:37.081Z,4.20
2023-03-28T20:51:14.619Z,4.10
2023-03-28T20:53:44.322Z,4.10
2023-03-28T20:56:12.776Z,4.10
2023-03-28T20:58:40.820Z,4.00
2023-03-28T21:01:09.856Z,4.10
2023-03-28T21:03:46.847Z,4.00
2023-03-28T21:06:20.545Z,4.00
2023-03-28T21:08:49.781Z,4.00
2023-03-28T21:11:22.715Z,3.90
2023-03-28T21:13:50.252Z,4.00
2023-03-28T21:16:17.518Z,3.90
2023-03-28T21:18:45.627Z,3.90
2023-03-28T21:21:14.852Z,3.90
2023-03-28T21:23:43.043Z,3.80
2023-03-28T21:26:17.568Z,3.80
2023-03-28T21:28:45.789Z,3.80
2023-03-28T21:31:15.690Z,3.80
2023-03-28T21:33:43.243Z,3.80
2023-03-28T21:36:12.940Z,3.80
2023-03-28T21:38:42.755Z,3.70
2023-03-28T21:41:11.528Z,3.70
2023-03-28T21:43:39.278Z,3.70
2023-03-28T21:46:07.789Z,3.70
2023-03-28T21:48:35.581Z,3.70
2023-03-28T21:51:03.684Z,3.70
2023-03-28T21:53:33.546Z,3.70
2023-03-28T21:56:00.899Z,3.60
2023-03-28T21:58:30.975Z,3.60
2023-03-28T22:00:58.522Z,3.60
2023-03-28T22:03:26.708Z,3.60
2023-03-28T22:05:54.774Z,3.60
2023-03-28T22:08:23.116Z,3.60
2023-03-28T22:10:55.794Z,3.60
2023-03-28T22:13:24.039Z,3.50
2023-03-28T22:15:52.789Z,3.50
2023-03-28T22:18:20.689Z,3.50
2023-03-28T22:20:53.349Z,3.50
2023-03-28T22:23:25.990Z,3.50
2023-03-28T22:25:53.347Z,3.50
2023-03-28T22:28:24.850Z,3.50
2023-03-28T22:30:56.966Z,3.50
2023-03-28T22:33:25.698Z,3.50
2023-03-28T22:35:53.396Z,3.50
2023-03-28T22:38:20.556Z,3.50
2023-03-28T22:40:47.895Z,3.50
2023-03-28T22:43:16.350Z,3.50
2023-03-28T22:45:43.585Z,3.50
2023-03-28T22:48:17.282Z,3.50
2023-03-28T22:50:45.006Z,3.40
2023-03-28T22:53:12.948Z,3.40
2023-03-28T22:55:41.937Z,3.40
2023-03-28T22:58:09.099Z,3.40
2023-03-28T23:00:36.485Z,3.40
2023-03-28T23:03:04.075Z,3.40
2023-03-28T23:05:31.314Z,3.40
2023-03-28T23:08:00.209Z,3.40
2023-03-28T23:10:27.556Z,3.40
2023-03-28T23:12:54.681Z,3.40
2023-03-28T23:15:22.391Z,3.40
2023-03-28T23:17:49.554Z,3.40
2023-03-28T23:20:17.334Z,3.40
2023-03-28T23:22:46.639Z,3.40
2023-03-28T23:25:16.014Z,3.40
2023-03-28T23:27:43.784Z,3.40
2023-03-28T23:30:13.510Z,3.40
2023-03-28T23:32:40.965Z,3.50
2023-03-28T23:35:09.917Z,3.50
2023-03-28T23:37:38.544Z,3.40
2023-03-28T23:40:10.646Z,3.50
2023-03-28T23:42:38.031Z,3.50
2023-03-28T23:45:05.469Z,3.50
2023-03-28T23:47:32.682Z,3.50
2023-03-28T23:49:59.762Z,3.50
2023-03-28T23:52:27.297Z,3.50
2023-03-28T23:54:54.363Z,3.50
2023-03-28T23:57:25.345Z,3.40
2023-03-28T23:59:52.426Z,3.50
